sensor_id;sensor_type;location;lat;lon;timestamp;P1;durP1;ratioP1;P2;durP2;ratioP2
47894;SDS011;33653;52.302;8.134;2023-05-10T15:09:24;5.53;;;3.33;;
47894;SDS011;33653;52.302;8.134;2023-05-10T15:11:55;4.47;;;3.28;;
47894;SDS011;33653;52.302;8.134;2023-05-10T15:14:24;6.63;;;3.53;;
47894;SDS011;33653;52.302;8.134;2023-05-10T15:16:52;5.25;;;2.85;;
47894;SDS011;33653;52.302;8.134;2023-05-10T15:19:20;6.28;;;3.65;;
47894;SDS011;33653;52.302;8.134;2023-05-10T15:21:49;6.35;;;3.75;;
47894;SDS011;33653;52.302;8.134;2023-05-10T15:24:17;7.20;;;3.40;;
47894;SDS011;33653;52.302;8.134;2023-05-10T15:26:46;4.80;;;3.15;;
47894;SDS011;33653;52.302;8.134;2023-05-10T15:29:16;4.93;;;3.10;;
47894;SDS011;33653;52.302;8.134;2023-05-10T15:34:15;4.43;;;2.95;;
47894;SDS011;33653;52.302;8.134;2023-05-10T15:36:44;5.40;;;3.30;;
47894;SDS011;33653;52.302;8.134;2023-05-10T15:39:13;4.68;;;2.70;;
47894;SDS011;33653;52.302;8.134;2023-05-10T15:41:41;4.32;;;2.60;;
47894;SDS011;33653;52.302;8.134;2023-05-10T15:44:09;5.22;;;2.58;;
47894;SDS011;33653;52.302;8.134;2023-05-10T15:46:38;6.40;;;3.17;;
47894;SDS011;33653;52.302;8.134;2023-05-10T15:49:07;7.05;;;3.10;;
47894;SDS011;33653;52.302;8.134;2023-05-10T15:51:35;8.07;;;3.65;;
47894;SDS011;33653;52.302;8.134;2023-05-10T15:54:03;5.53;;;2.70;;
47894;SDS011;33653;52.302;8.134;2023-05-10T15:56:34;5.72;;;2.95;;
47894;SDS011;33653;52.302;8.134;2023-05-10T15:59:03;4.07;;;2.72;;
47894;SDS011;33653;52.302;8.134;2023-05-10T16:01:32;4.32;;;2.83;;
47894;SDS011;33653;52.302;8.134;2023-05-10T16:04:00;5.47;;;2.92;;
47894;SDS011;33653;52.302;8.134;2023-05-10T16:06:28;6.03;;;2.78;;
47894;SDS011;33653;52.302;8.134;2023-05-10T16:08:57;5.32;;;3.08;;
47894;SDS011;33653;52.302;8.134;2023-05-10T18:27:19;3.50;;;2.30;;
47894;SDS011;33653;52.302;8.134;2023-05-10T18:29:47;5.07;;;3.13;;
47894;SDS011;33653;52.302;8.134;2023-05-10T18:32:15;5.88;;;3.15;;
47894;SDS011;33653;52.302;8.134;2023-05-10T18:34:44;6.38;;;3.20;;
47894;SDS011;33653;52.302;8.134;2023-05-10T18:37:12;6.45;;;3.53;;
47894;SDS011;33653;52.302;8.134;2023-05-10T18:39:41;8.52;;;4.38;;
47894;SDS011;33653;52.302;8.134;2023-05-10T18:42:09;6.95;;;4.13;;
47894;SDS011;33653;52.302;8.134;2023-05-10T18:44:37;10.13;;;5.55;;
47894;SDS011;33653;52.302;8.134;2023-05-10T18:47:06;10.05;;;4.97;;
47894;SDS011;33653;52.302;8.134;2023-05-10T18:49:34;6.75;;;4.70;;
47894;SDS011;33653;52.302;8.134;2023-05-10T18:52:02;7.90;;;4.57;;
47894;SDS011;33653;52.302;8.134;2023-05-10T18:54:30;15.88;;;6.97;;
47894;SDS011;33653;52.302;8.134;2023-05-10T18:56:58;9.70;;;5.45;;
47894;SDS011;33653;52.302;8.134;2023-05-10T18:59:26;10.95;;;6.38;;
47894;SDS011;33653;52.302;8.134;2023-05-10T19:01:54;12.02;;;6.28;;
47894;SDS011;33653;52.302;8.134;2023-05-10T19:04:23;8.93;;;4.82;;
47894;SDS011;33653;52.302;8.134;2023-05-10T19:06:52;9.23;;;5.45;;
47894;SDS011;33653;52.302;8.134;2023-05-10T19:09:20;4.85;;;3.42;;
47894;SDS011;33653;52.302;8.134;2023-05-10T19:11:49;6.53;;;3.28;;
47894;SDS011;33653;52.302;8.134;2023-05-10T19:14:19;4.95;;;3.20;;
47894;SDS011;33653;52.302;8.134;2023-05-10T19:16:47;8.40;;;3.05;;
47894;SDS011;33653;52.302;8.134;2023-05-10T19:19:17;5.10;;;2.45;;
47894;SDS011;33653;52.302;8.134;2023-05-10T19:21:47;4.95;;;3.00;;
47894;SDS011;33653;52.302;8.134;2023-05-10T19:24:15;5.68;;;2.80;;
47894;SDS011;33653;52.302;8.134;2023-05-10T19:26:45;3.38;;;2.58;;
47894;SDS011;33653;52.302;8.134;2023-05-10T19:29:14;3.95;;;2.50;;
47894;SDS011;33653;52.302;8.134;2023-05-10T19:31:42;3.58;;;2.25;;
47894;SDS011;33653;52.302;8.134;2023-05-10T19:34:11;5.00;;;2.65;;
47894;SDS011;33653;52.302;8.134;2023-05-10T19:36:39;5.85;;;2.97;;
47894;SDS011;33653;52.302;8.134;2023-05-10T19:39:07;4.47;;;2.97;;
47894;SDS011;33653;52.302;8.134;2023-05-10T19:41:36;6.53;;;2.13;;
47894;SDS011;33653;52.302;8.134;2023-05-10T19:44:04;3.30;;;2.40;;
47894;SDS011;33653;52.302;8.134;2023-05-10T19:46:33;5.53;;;2.90;;
47894;SDS011;33653;52.302;8.134;2023-05-10T19:49:01;4.57;;;2.95;;
47894;SDS011;33653;52.302;8.134;2023-05-10T19:51:29;6.65;;;3.03;;
47894;SDS011;33653;52.302;8.134;2023-05-10T19:53:57;4.35;;;2.88;;
47894;SDS011;33653;52.302;8.134;2023-05-10T19:56:24;4.38;;;3.03;;
47894;SDS011;33653;52.302;8.134;2023-05-10T19:58:54;4.67;;;2.27;;
47894;SDS011;33653;52.302;8.134;2023-05-10T20:01:23;2.45;;;1.88;;
47894;SDS011;33653;52.302;8.134;2023-05-10T20:03:51;3.60;;;2.72;;
47894;SDS011;33653;52.302;8.134;2023-05-10T20:06:19;5.03;;;2.35;;
47894;SDS011;33653;52.302;8.134;2023-05-10T20:08:47;3.42;;;2.60;;
47894;SDS011;33653;52.302;8.134;2023-05-10T20:11:15;3.65;;;2.50;;
47894;SDS011;33653;52.302;8.134;2023-05-10T20:13:43;3.45;;;2.72;;
47894;SDS011;33653;52.302;8.134;2023-05-10T20:16:11;7.43;;;3.45;;
47894;SDS011;33653;52.302;8.134;2023-05-10T20:18:39;4.15;;;3.00;;
47894;SDS011;33653;52.302;8.134;2023-05-10T20:21:07;5.20;;;3.53;;
47894;SDS011;33653;52.302;8.134;2023-05-10T20:23:35;4.60;;;3.10;;
47894;SDS011;33653;52.302;8.134;2023-05-10T20:26:03;5.95;;;3.10;;
47894;SDS011;33653;52.302;8.134;2023-05-10T20:28:31;7.03;;;3.58;;
47894;SDS011;33653;52.302;8.134;2023-05-10T20:30:59;5.85;;;3.47;;
47894;SDS011;33653;52.302;8.134;2023-05-10T20:33:28;4.97;;;3.50;;
47894;SDS011;33653;52.302;8.134;2023-05-10T20:35:56;5.28;;;2.92;;
47894;SDS011;33653;52.302;8.134;2023-05-10T20:38:24;5.53;;;3.30;;
47894;SDS011;33653;52.302;8.134;2023-05-10T20:40:52;5.90;;;3.85;;
47894;SDS011;33653;52.302;8.134;2023-05-10T20:43:20;6.10;;;4.22;;
47894;SDS011;33653;52.302;8.134;2023-05-10T20:45:48;5.05;;;3.47;;
47894;SDS011;33653;52.302;8.134;2023-05-10T20:48:16;6.20;;;3.78;;
47894;SDS011;33653;52.302;8.134;2023-05-10T20:50:46;4.78;;;3.20;;
47894;SDS011;33653;52.302;8.134;2023-05-10T20:53:14;5.50;;;3.70;;
47894;SDS011;33653;52.302;8.134;2023-05-10T20:55:43;4.18;;;3.25;;
47894;SDS011;33653;52.302;8.134;2023-05-10T20:58:11;4.93;;;3.15;;
47894;SDS011;33653;52.302;8.134;2023-05-10T21:00:39;4.60;;;3.20;;
47894;SDS011;33653;52.302;8.134;2023-05-10T21:03:07;5.18;;;3.72;;
47894;SDS011;33653;52.302;8.134;2023-05-10T21:05:35;6.43;;;4.07;;
47894;SDS011;33653;52.302;8.134;2023-05-10T21:08:03;5.03;;;3.55;;
47894;SDS011;33653;52.302;8.134;2023-05-10T21:10:32;5.90;;;3.83;;
47894;SDS011;33653;52.302;8.134;2023-05-10T21:13:00;6.20;;;3.75;;
47894;SDS011;33653;52.302;8.134;2023-05-10T21:15:28;5.40;;;3.53;;
47894;SDS011;33653;52.302;8.134;2023-05-10T21:17:56;6.55;;;3.53;;
47894;SDS011;33653;52.302;8.134;2023-05-10T21:20:26;5.47;;;3.50;;
47894;SDS011;33653;52.302;8.134;2023-05-10T21:22:54;5.70;;;3.30;;
47894;SDS011;33653;52.302;8.134;2023-05-10T21:25:22;5.53;;;3.85;;
47894;SDS011;33653;52.302;8.134;2023-05-10T21:27:51;5.75;;;3.75;;
47894;SDS011;33653;52.302;8.134;2023-05-10T21:30:19;7.03;;;3.50;;
47894;SDS011;33653;52.302;8.134;2023-05-10T21:32:48;4.05;;;2.80;;
47894;SDS011;33653;52.302;8.134;2023-05-10T21:35:16;4.18;;;2.80;;
47894;SDS011;33653;52.302;8.134;2023-05-10T21:37:44;4.95;;;3.17;;
47894;SDS011;33653;52.302;8.134;2023-05-10T21:40:12;4.07;;;2.80;;
47894;SDS011;33653;52.302;8.134;2023-05-10T21:42:42;4.55;;;2.55;;
47894;SDS011;33653;52.302;8.134;2023-05-10T21:45:17;3.70;;;2.83;;
47894;SDS011;33653;52.302;8.134;2023-05-10T21:50:14;3.95;;;2.83;;
47894;SDS011;33653;52.302;8.134;2023-05-10T21:52:42;4.45;;;3.13;;
47894;SDS011;33653;52.302;8.134;2023-05-10T21:55:10;6.10;;;3.22;;
47894;SDS011;33653;52.302;8.134;2023-05-10T21:57:38;6.78;;;4.20;;
47894;SDS011;33653;52.302;8.134;2023-05-10T22:00:07;4.97;;;3.80;;
47894;SDS011;33653;52.302;8.134;2023-05-10T22:02:38;9.98;;;4.00;;
47894;SDS011;33653;52.302;8.134;2023-05-10T22:05:07;6.18;;;4.03;;
47894;SDS011;33653;52.302;8.134;2023-05-10T22:07:35;5.53;;;3.67;;
47894;SDS011;33653;52.302;8.134;2023-05-10T22:10:03;5.70;;;3.78;;
47894;SDS011;33653;52.302;8.134;2023-05-10T22:12:32;4.65;;;3.72;;
47894;SDS011;33653;52.302;8.134;2023-05-10T22:15:00;4.68;;;3.30;;
47894;SDS011;33653;52.302;8.134;2023-05-10T22:17:32;5.03;;;3.45;;
47894;SDS011;33653;52.302;8.134;2023-05-10T22:20:00;4.35;;;3.22;;
47894;SDS011;33653;52.302;8.134;2023-05-10T22:22:28;4.32;;;3.20;;
47894;SDS011;33653;52.302;8.134;2023-05-10T22:24:56;6.93;;;3.78;;
47894;SDS011;33653;52.302;8.134;2023-05-10T22:27:24;5.35;;;3.38;;
47894;SDS011;33653;52.302;8.134;2023-05-10T22:29:52;7.07;;;4.07;;
47894;SDS011;33653;52.302;8.134;2023-05-10T22:32:20;6.57;;;4.20;;
47894;SDS011;33653;52.302;8.134;2023-05-10T22:34:48;6.28;;;3.65;;
47894;SDS011;33653;52.302;8.134;2023-05-10T22:37:16;5.00;;;3.78;;
47894;SDS011;33653;52.302;8.134;2023-05-10T22:39:44;5.70;;;3.72;;
47894;SDS011;33653;52.302;8.134;2023-05-10T22:42:13;6.57;;;3.17;;
47894;SDS011;33653;52.302;8.134;2023-05-10T22:44:41;4.32;;;2.90;;
47894;SDS011;33653;52.302;8.134;2023-05-10T22:47:10;4.53;;;2.92;;
47894;SDS011;33653;52.302;8.134;2023-05-10T22:49:38;3.00;;;2.42;;
47894;SDS011;33653;52.302;8.134;2023-05-10T22:52:06;4.70;;;3.38;;
47894;SDS011;33653;52.302;8.134;2023-05-10T22:54:35;4.10;;;2.78;;
47894;SDS011;33653;52.302;8.134;2023-05-10T22:57:03;6.32;;;3.75;;
47894;SDS011;33653;52.302;8.134;2023-05-10T22:59:31;4.55;;;3.33;;
47894;SDS011;33653;52.302;8.134;2023-05-10T23:02:00;6.85;;;3.40;;
47894;SDS011;33653;52.302;8.134;2023-05-10T23:04:28;3.67;;;2.80;;
47894;SDS011;33653;52.302;8.134;2023-05-10T23:06:56;7.85;;;3.95;;
47894;SDS011;33653;52.302;8.134;2023-05-10T23:09:24;5.75;;;2.72;;
47894;SDS011;33653;52.302;8.134;2023-05-10T23:11:52;3.78;;;2.88;;
47894;SDS011;33653;52.302;8.134;2023-05-10T23:14:21;5.07;;;2.90;;
47894;SDS011;33653;52.302;8.134;2023-05-10T23:16:49;5.00;;;3.10;;
47894;SDS011;33653;52.302;8.134;2023-05-10T23:19:17;4.15;;;2.72;;
47894;SDS011;33653;52.302;8.134;2023-05-10T23:21:45;7.68;;;3.60;;
47894;SDS011;33653;52.302;8.134;2023-05-10T23:24:13;6.80;;;3.38;;
47894;SDS011;33653;52.302;8.134;2023-05-10T23:26:41;3.67;;;2.88;;
47894;SDS011;33653;52.302;8.134;2023-05-10T23:29:11;4.00;;;2.75;;
47894;SDS011;33653;52.302;8.134;2023-05-10T23:31:39;4.07;;;3.05;;
47894;SDS011;33653;52.302;8.134;2023-05-10T23:34:11;4.93;;;3.17;;
47894;SDS011;33653;52.302;8.134;2023-05-10T23:36:39;4.25;;;3.10;;
47894;SDS011;33653;52.302;8.134;2023-05-10T23:39:07;5.70;;;3.25;;
47894;SDS011;33653;52.302;8.134;2023-05-10T23:41:35;4.18;;;3.22;;
47894;SDS011;33653;52.302;8.134;2023-05-10T23:44:03;4.53;;;3.17;;
47894;SDS011;33653;52.302;8.134;2023-05-10T23:46:31;4.18;;;2.95;;
47894;SDS011;33653;52.302;8.134;2023-05-10T23:48:59;4.43;;;2.88;;
47894;SDS011;33653;52.302;8.134;2023-05-10T23:51:27;6.05;;;3.58;;
47894;SDS011;33653;52.302;8.134;2023-05-10T23:53:55;6.15;;;3.80;;
47894;SDS011;33653;52.302;8.134;2023-05-10T23:56:24;5.80;;;3.65;;
47894;SDS011;33653;52.302;8.134;2023-05-10T23:58:52;7.47;;;3.72;;
